Werte bis 5 Uhr SommerzeitDiagramme Allmendfeld: Tagesdaten MonatsdatenCSV-Datei: Allmendfeld21.csv

Wetterdaten 2021 Station: Allmendfeld
Temperaturen in °C relative Nieder- Global- Wind Wind Wind- Sonnen-
Datum Boden Boden Luft Luft Luft Luft Feuchte schlag strahlung max richtung schein
20 cm 5 cm 20 cm 2 m 2 m max 2 m min % mm W/m2*d m/s m/s ° h

27.10.2021 10,4 9,2 7,8 7,7 8,8 6,9 100 0,0 0 0,7 2,8 --- ---
26.10.2021 9,9 9,4 10,8 10,9 16,1 5,9 91 0,2 1556 0,9 4,8 --- 4,7
25.10.2021 9,5 7,8 4,8 5,0 13,9 -1,1 95 0,1 1790 0,3 2,3 --- 4,4
24.10.2021 10,3 8,4 5,3 5,8 14,3 -0,9 88 0,0 2283 0,3 3,0 --- 5,1
23.10.2021 11,0 10,0 8,1 8,3 13,7 1,5 89 0,1 1806 0,5 4,3 --- 5,8
22.10.2021 11,4 9,6 7,5 7,6 11,6 2,7 84 0,1 2260 2,0 10,6 --- 5,2
21.10.2021 12,4 12,0 13,1 12,9 15,8 6,8 78 8,7 1634 5,2 19,8 --- 4,0
20.10.2021 11,7 11,6 14,5 14,7 18,3 9,8 86 3,2 1134 1,2 6,0 --- 3,9
19.10.2021 11,1 10,3 10,8 10,7 16,6 4,4 95 8,8 800 1,1 6,6 --- 2,1
18.10.2021 11,3 10,3 8,3 8,4 13,7 4,5 95 0,0 905 0,3 3,5 --- 1,5
17.10.2021 11,2 10,1 8,0 8,1 13,3 3,3 94 0,0 1725 0,3 2,0 --- 5,0
16.10.2021 11,4 10,3 8,4 8,7 15,6 4,7 92 0,1 2649 0,7 5,1 --- 5,6
15.10.2021 11,5 10,4 9,6 9,7 15,8 5,1 91 0,1 2060 0,8 4,1 --- 5,1
14.10.2021 11,5 10,6 9,6 9,6 15,3 6,5 93 0,0 1386 1,0 3,4 --- 3,9
13.10.2021 11,4 10,1 7,4 7,5 13,2 1,9 94 0,6 1726 0,4 4,4 --- 4,8
12.10.2021 11,6 10,4 9,1 8,9 12,1 6,3 98 10,1 743 0,7 6,8 --- 1,9
11.10.2021 11,6 9,6 6,1 6,0 11,9 0,7 98 0,0 1085 0,4 3,0 --- 3,2
10.10.2021 12,4 10,5 7,9 8,5 16,4 1,5 84 0,0 3218 0,4 3,6 --- 6,1
09.10.2021 13,4 11,9 10,8 11,2 18,0 5,4 79 0,0 3396 0,9 6,0 --- 6,2
08.10.2021 13,8 12,6 11,6 11,8 18,6 6,5 86 0,0 2866 1,0 4,7 --- 6,7
07.10.2021 14,2 13,4 12,0 12,4 18,1 7,3 88 0,7 2724 0,6 3,5 --- 5,8
06.10.2021 14,4 13,2 11,7 11,7 14,4 9,6 87 0,2 1491 1,5 6,9 --- 3,3
05.10.2021 14,9 14,2 13,3 13,2 18,0 10,9 92 6,8 2100 1,0 5,8 --- 5,4
04.10.2021 15,2 14,6 13,3 13,2 15,6 11,1 94 2,5 1311 0,9 4,3 --- 4,1
03.10.2021 14,9 14,8 18,2 18,4 23,7 14,4 73 1,8 848 1,4 7,0 --- 2,1
02.10.2021 14,2 13,6 16,4 16,4 22,3 10,7 73 0,6 3387 1,2 7,0 --- 6,8
01.10.2021 14,1 12,5 11,7 11,9 20,8 4,3 77 0,0 3769 0,6 4,1 --- 6,9
30.09.2021 14,8 13,1 11,1 11,0 16,8 6,3 79 0,0 3794 1,1 6,3 --- 7,2
29.09.2021 15,8 14,7 13,3 13,4 17,4 8,5 81 0,9 1972 1,7 10,9 --- 6,2
28.09.2021 16,5 15,8 13,7 14,1 20,0 9,7 85 0,9 3806 0,4 3,2 --- 7,4
27.09.2021 16,5 16,6 17,7 17,8 22,5 13,9 90 4,1 2436 0,8 10,2 --- 5,9
26.09.2021 15,9 16,0 17,5 17,6 21,5 13,0 92 8,7 1622 0,5 4,0 --- 4,5
25.09.2021 15,4 14,5 15,5 16,3 26,4 6,9 79 0,0 4247 0,3 2,8 --- 7,7
24.09.2021 15,4 14,7 16,0 16,1 22,4 10,6 78 0,0 2803 1,0 6,1 --- 7,1
23.09.2021 15,2 13,8 14,0 14,2 24,4 5,2 78 0,0 4490 0,9 5,7 --- 8,1
22.09.2021 15,8 14,3 11,8 12,4 22,1 5,5 82 0,0 3843 0,4 3,6 --- 7,7
21.09.2021 16,7 15,7 13,8 14,1 19,8 8,2 66 0,0 4477 0,9 5,7 --- 7,8
20.09.2021 17,0 16,3 14,4 14,5 17,8 12,3 77 0,0 1924 0,7 4,4 --- 5,7
19.09.2021 17,3 16,2 15,1 15,2 21,1 10,3 81 0,0 4037 1,1 5,5 --- 7,4
18.09.2021 17,8 16,9 15,3 15,9 24,3 8,5 83 0,0 4440 0,4 4,0 --- 8,3
17.09.2021 18,4 18,1 16,1 16,5 23,4 12,3 84 0,0 3480 0,3 3,4 --- 7,4
16.09.2021 18,7 18,5 17,4 17,5 20,7 14,7 84 15,8 3310 0,7 4,9 --- 6,3
15.09.2021 18,6 18,8 20,0 19,7 22,8 17,5 92 3,2 1649 0,8 4,7 --- 5,2
14.09.2021 18,1 17,9 19,1 19,7 28,1 11,3 80 0,0 4233 0,5 3,9 --- 8,1
13.09.2021 18,1 17,4 17,3 17,8 26,2 10,8 78 0,0 4902 0,7 4,5 --- 8,4
12.09.2021 18,7 18,3 16,8 17,1 24,2 10,2 80 0,1 2394 0,6 9,5 --- 8,6
11.09.2021 18,9 19,0 18,9 19,3 24,5 15,5 86 14,8 1741 1,2 7,3 --- 5,8
10.09.2021 18,8 19,1 21,1 21,4 26,6 17,1 76 0,5 3235 1,4 7,1 --- 6,7
09.09.2021 18,3 18,3 20,6 20,4 28,4 11,7 74 0,0 4534 1,1 7,8 --- 8,2
08.09.2021 18,4 18,2 19,4 19,9 28,2 10,6 71 0,0 5479 0,9 6,6 --- 8,9
07.09.2021 18,5 18,5 18,6 19,2 28,4 11,3 76 0,0 4374 0,4 3,9 --- 8,4
06.09.2021 18,5 18,6 19,4 20,3 29,8 11,6 71 0,0 5362 0,4 4,2 --- 8,5
05.09.2021 18,3 18,5 19,8 20,6 29,1 13,8 71 0,0 5026 0,8 3,7 --- 8,5
04.09.2021 17,9 17,8 18,2 19,0 28,6 9,9 73 0,0 5643 0,6 5,3 --- 8,6
03.09.2021 17,9 17,7 18,1 18,8 28,1 10,2 72 0,0 6022 0,6 4,5 --- 9,2
02.09.2021 17,8 17,5 17,5 17,8 25,0 10,4 76 0,0 6084 1,3 7,2 --- 9,3
01.09.2021 17,8 17,4 15,5 16,0 24,2 9,0 81 0,0 5613 0,7 6,5 --- 9,2
31.08.2021 17,9 17,8 16,1 16,7 22,5 10,8 83 0,0 3869 0,6 4,6 --- 8,4
30.08.2021 17,7 17,4 16,5 16,6 20,3 14,6 91 2,2 1711 0,8 5,1 --- 6,0
29.08.2021 17,8 17,0 15,0 14,9 16,5 13,4 97 8,5 1150 1,0 5,3 --- 2,2
28.08.2021 17,8 17,2 14,8 15,0 20,9 11,0 86 0,2 3075 0,5 4,1 --- 7,1
27.08.2021 18,1 17,3 15,1 15,0 19,2 10,5 84 0,7 2646 1,3 6,9 --- 7,0
26.08.2021 18,7 18,0 16,5 16,5 20,7 11,9 76 3,2 3506 1,5 7,4 --- 7,6
25.08.2021 18,7 18,4 17,0 17,5 24,8 10,6 73 0,0 6439 0,9 4,7 --- 9,7
24.08.2021 19,1 18,4 15,9 16,2 21,9 10,6 81 0,0 4757 0,9 5,8 --- 9,3
23.08.2021 19,2 19,1 17,5 17,8 23,9 13,5 88 1,7 4062 0,6 6,8 --- 7,8
22.08.2021 19,9 19,4 18,2 18,1 22,7 14,2 93 15,0 1702 1,1 5,5 --- 4,3
21.08.2021 19,7 20,1 20,7 21,2 30,3 12,3 72 0,0 5811 0,6 4,5 --- 9,4
20.08.2021 19,2 19,8 20,1 20,5 26,7 15,8 73 0,0 5834 0,7 5,2 --- 9,3
19.08.2021 18,6 18,3 19,0 18,9 22,7 15,7 82 0,1 2564 1,3 6,8 --- 6,4
18.08.2021 18,3 17,5 17,4 17,3 21,4 13,3 84 0,0 2425 1,3 5,5 --- 6,9
17.08.2021 18,9 17,2 14,7 14,5 19,3 9,0 81 3,1 3455 1,6 9,4 --- 7,3
16.08.2021 20,7 20,0 19,5 19,1 23,7 13,0 75 5,5 2839 2,2 11,3 --- 7,4
15.08.2021 20,9 21,4 22,6 23,3 31,6 15,1 65 0,0 6338 0,7 3,3 --- 10,1
14.08.2021 20,9 21,2 22,5 23,0 32,4 13,9 71 0,0 6831 0,7 5,9 --- 9,9
13.08.2021 20,8 21,5 23,1 23,6 32,4 16,3 77 1,3 5895 1,0 8,4 --- 8,8
12.08.2021 20,2 20,7 20,6 22,0 31,5 12,9 75 0,0 5511 0,4 3,4 --- 9,6
11.08.2021 19,6 20,4 20,4 21,6 29,6 14,8 72 0,0 6000 0,4 4,2 --- 9,5
10.08.2021 19,0 18,9 19,5 19,7 26,6 14,0 72 0,0 5095 1,1 6,0 --- 7,8
09.08.2021 18,7 18,2 18,2 18,5 24,2 12,0 72 0,0 5464 1,2 6,6 --- 9,9
08.08.2021 19,0 18,3 17,2 17,3 22,8 13,5 78 1,1 4671 1,7 13,0 --- 8,7
07.08.2021 19,3 18,8 18,0 18,3 22,1 14,0 82 0,0 2799 0,9 5,5 --- 8,3
06.08.2021 19,7 19,3 18,5 18,6 22,9 14,8 83 5,1 3674 2,0 8,9 --- 8,1
05.08.2021 19,4 19,5 18,3 18,7 25,6 11,9 80 0,2 6292 0,8 5,4 --- 9,3
04.08.2021 19,1 18,9 17,0 17,3 22,2 14,2 87 0,6 3470 0,7 4,1 --- 9,0
03.08.2021 19,2 18,2 15,7 15,5 19,7 12,3 95 13,1 2506 0,7 4,7 --- 5,7
02.08.2021 19,9 19,0 16,1 16,1 22,1 11,5 88 12,5 3655 0,8 6,5 --- 8,3
01.08.2021 20,4 20,2 18,4 18,6 24,6 13,6 72 1,2 5352 1,1 7,6 --- 8,5
31.07.2021 20,6 20,2 19,9 19,9 24,6 14,0 61 0,0 6729 2,6 9,9 --- 10,0
30.07.2021 20,5 20,7 20,9 21,2 28,3 13,2 64 0,0 7300 1,4 9,4 --- 9,9
29.07.2021 20,7 20,1 19,2 19,2 24,2 14,4 70 0,0 6590 2,0 11,7 --- 9,2
28.07.2021 21,1 20,7 19,0 19,1 24,2 15,5 88 2,1 4278 1,3 6,5 --- 9,6
27.07.2021 21,5 21,5 20,4 20,8 26,9 15,9 80 5,9 4792 0,9 5,4 --- 9,4
26.07.2021 21,9 21,9 20,2 20,6 27,7 15,2 82 20,5 5059 0,9 14,0 --- 8,6
25.07.2021 22,2 23,0 21,1 21,6 29,3 15,4 77 0,0 6135 0,8 6,5 --- 8,9
24.07.2021 22,3 22,6 21,0 21,2 28,9 16,3 74 0,1 4706 1,3 9,3 --- 8,7
23.07.2021 22,3 23,2 20,3 21,5 30,1 12,0 66 0,0 7683 0,7 4,6 --- 10,0
22.07.2021 22,2 23,1 20,0 21,0 28,6 13,3 64 0,0 7414 0,9 5,6 --- 9,5
21.07.2021 22,1 22,9 19,2 20,2 27,8 12,1 62 0,0 7990 0,9 4,9 --- 9,9
20.07.2021 22,3 23,0 18,3 19,4 26,9 11,3 67 0,0 7372 0,7 5,8 --- 9,9
19.07.2021 22,4 23,7 20,4 21,3 27,4 14,0 72 0,0 7593 0,9 6,0 --- 9,8
18.07.2021 21,6 23,2 21,5 22,5 30,3 13,7 68 0,0 7922 0,9 7,3 --- 9,9
17.07.2021 21,0 22,0 21,2 21,7 28,6 17,7 79 0,0 4414 1,2 5,2 --- 8,6
16.07.2021 20,4 21,0 19,3 19,6 25,8 13,5 85 0,3 4843 1,3 6,8 --- 9,9
15.07.2021 19,6 20,2 18,6 19,1 25,1 15,2 83 0,1 4236 0,8 4,1 --- 8,5
14.07.2021 19,7 18,6 16,6 16,6 18,3 15,4 94 1,2 1592 1,3 6,0 --- 4,4
13.07.2021 21,1 20,6 18,4 18,2 21,0 15,8 98 25,7 1327 0,9 8,4 --- 3,3
12.07.2021 20,9 21,4 20,0 20,9 28,7 11,6 76 1,0 5006 0,7 5,9 --- 10,3
11.07.2021 20,9 21,4 18,9 19,4 25,8 14,9 82 0,4 4590 0,9 4,3 --- 7,1
10.07.2021 20,4 21,1 19,5 20,4 28,9 11,4 73 9,8 6711 0,7 10,2 --- 9,7
09.07.2021 20,3 20,4 18,4 18,7 24,3 14,4 83 1,0 3458 0,9 5,5 --- 8,2
08.07.2021 20,5 20,5 18,1 18,4 24,5 14,4 88 1,1 2880 0,7 5,3 --- 8,6
07.07.2021 20,2 21,0 19,7 20,2 28,0 14,8 75 0,0 7589 0,8 6,0 --- 9,5
06.07.2021 20,2 19,7 18,2 18,4 20,8 14,9 90 6,0 1906 1,0 6,2 --- 5,5
05.07.2021 20,6 20,3 19,0 19,1 24,7 15,2 86 0,3 4007 1,4 6,0 --- 7,9
04.07.2021 21,3 21,8 19,6 19,8 27,1 15,9 83 1,2 4683 1,4 8,7 --- 8,5
03.07.2021 20,5 21,7 20,2 21,2 28,6 12,2 70 0,0 7836 0,6 4,9 --- 10,1
02.07.2021 19,6 20,1 18,1 18,4 24,8 12,2 76 0,0 6495 0,8 6,9 --- 9,2
01.07.2021 19,8 18,7 16,1 16,1 18,9 14,2 84 2,3 2309 1,5 7,1 --- 6,7
30.06.2021 20,9 19,8 16,6 16,5 20,2 13,9 91 4,9 3106 1,3 6,2 --- 7,9
29.06.2021 22,4 22,5 19,2 19,3 28,5 14,6 90 29,2 4634 1,1 13,2 --- 6,3
28.06.2021 22,3 23,7 22,5 23,0 31,2 16,6 78 2,6 5892 0,8 6,7 --- 8,8
27.06.2021 21,7 22,9 22,0 22,8 29,0 16,7 72 0,0 5682 0,8 6,7 --- 8,9
26.06.2021 20,9 21,7 19,1 20,3 28,1 11,9 73 0,0 6935 0,4 3,5 --- 9,8
25.06.2021 20,8 21,1 18,5 18,6 22,9 15,0 84 3,8 4837 1,1 5,9 --- 9,7
24.06.2021 21,3 20,9 18,0 18,0 20,2 16,3 94 18,5 1909 0,8 5,1 --- 5,3
23.06.2021 21,3 22,0 19,4 19,9 28,4 14,4 82 1,2 5890 0,8 6,2 --- 8,9
22.06.2021 22,1 21,3 17,0 17,2 20,4 13,6 89 9,8 3072 0,9 5,2 --- 8,1
21.06.2021 23,3 24,0 21,6 21,5 28,7 16,5 76 0,2 7685 1,7 8,4 --- 9,6
20.06.2021 24,3 25,9 25,7 25,8 31,4 17,8 64 14,3 5943 1,7 8,5 --- 9,9
19.06.2021 24,0 26,6 26,8 27,6 35,4 19,3 60 0,0 8002 0,8 4,0 --- 10,1
18.06.2021 23,4 25,6 26,7 27,6 36,4 17,3 62 0,0 7079 0,9 6,9 --- 10,0
17.06.2021 22,9 25,2 25,7 26,7 35,5 15,5 61 0,0 7792 0,8 5,6 --- 9,9
16.06.2021 22,1 24,6 25,0 25,9 34,6 17,3 60 0,0 7589 0,8 4,5 --- 10,2
15.06.2021 21,1 23,3 21,5 22,4 31,5 11,2 66 0,0 7888 0,7 7,0 --- 10,0
14.06.2021 20,2 22,3 19,4 20,5 29,7 9,5 62 0,0 8595 0,7 4,8 --- 10,1
13.06.2021 19,3 20,9 17,6 18,6 26,3 10,5 62 0,0 8506 0,8 9,6 --- 10,0
12.06.2021 19,4 20,2 20,1 20,9 27,7 14,8 74 0,0 5804 1,2 7,8 --- 9,0
11.06.2021 19,0 20,0 20,3 22,0 30,2 12,2 71 0,0 8123 0,4 4,4 --- 9,9
10.06.2021 18,8 20,0 20,5 22,0 29,1 14,0 72 0,0 8108 0,7 4,5 --- 10,1
09.06.2021 18,0 19,5 20,9 21,8 28,3 14,9 76 0,0 8093 0,8 4,9 --- 9,7
08.06.2021 17,3 18,3 19,5 20,1 26,8 15,9 84 3,4 4666 0,7 5,3 --- 8,6
07.06.2021 17,2 17,4 17,5 17,6 21,8 15,1 92 9,3 2092 0,9 4,1 --- 7,7
06.06.2021 17,5 18,1 17,9 17,9 22,9 15,6 88 14,0 4111 1,4 5,3 --- 5,9
05.06.2021 17,6 18,6 18,7 18,9 23,1 14,2 90 8,1 4477 1,0 6,1 --- 8,6
04.06.2021 17,3 19,0 20,7 21,5 29,9 15,1 78 8,3 6110 0,9 12,3 --- 9,9
03.06.2021 16,6 18,2 20,1 21,2 30,2 13,3 71 0,0 6180 0,8 6,7 --- 8,9
02.06.2021 15,7 17,0 17,9 20,1 30,8 7,4 56 0,0 8444 0,7 6,0 --- 9,9
01.06.2021 15,1 16,2 16,0 17,8 26,0 6,0 58 0,0 8607 1,2 7,1 --- 9,9
31.05.2021 14,8 15,7 14,3 16,0 23,5 4,6 59 0,0 8617 1,1 6,4 --- 10,0
30.05.2021 14,5 15,6 14,5 15,8 23,5 7,4 62 0,0 7718 1,1 6,0 --- 9,7
29.05.2021 13,7 14,8 14,4 15,6 23,2 7,1 62 0,0 8266 1,0 5,7 --- 9,7
28.05.2021 12,7 13,3 12,3 13,5 20,4 6,3 75 0,0 5349 0,5 4,4 --- 9,4
27.05.2021 12,3 12,0 10,6 10,9 14,8 6,4 88 0,9 2596 1,8 8,0 --- 7,7
26.05.2021 12,5 12,1 10,6 10,7 14,4 7,9 90 8,3 2062 2,3 11,4 --- 6,5
25.05.2021 13,0 12,2 10,5 10,6 14,9 8,5 78 1,6 2796 4,1 14,5 --- 5,9
24.05.2021 13,1 13,2 11,5 12,0 22,0 3,4 78 1,9 5595 1,7 10,5 --- 6,9
23.05.2021 13,0 13,1 12,2 12,4 17,8 8,2 74 0,1 6267 2,9 9,8 --- 10,0
22.05.2021 13,2 12,9 12,3 12,3 17,3 8,2 75 8,9 4511 4,1 16,3 --- 8,6
21.05.2021 13,7 13,8 14,4 14,5 18,2 11,8 66 0,2 3923 3,7 12,7 --- 8,7
20.05.2021 13,6 14,3 13,2 13,3 18,3 9,3 75 0,0 5281 1,6 6,1 --- 8,4
19.05.2021 13,3 13,7 11,9 11,9 18,6 5,8 78 0,1 6668 2,1 10,2 --- 9,3
18.05.2021 13,1 13,5 12,2 12,2 17,5 9,4 84 1,0 5103 2,3 10,9 --- 8,7
17.05.2021 13,2 13,4 12,4 12,3 17,0 9,5 85 6,5 4235 3,2 10,9 --- 8,3
16.05.2021 12,9 13,4 12,5 12,3 19,2 8,1 85 5,7 5583 2,6 11,0 --- 8,0
15.05.2021 13,0 13,0 11,5 11,5 15,2 7,8 86 9,2 3426 2,5 9,6 --- 8,9
14.05.2021 13,1 13,8 12,9 13,0 19,0 7,4 76 1,3 5213 1,9 8,8 --- 9,0
13.05.2021 12,9 13,5 12,6 12,7 20,4 5,2 77 0,0 6305 1,7 10,0 --- 10,3
12.05.2021 12,9 13,9 13,6 13,7 19,2 9,1 83 0,9 4019 1,4 5,8 --- 9,2
11.05.2021 12,8 13,5 13,7 13,6 16,7 11,4 96 2,6 1820 1,0 6,3 --- 5,4
10.05.2021 12,7 13,8 15,9 16,2 20,6 12,6 79 2,5 2157 1,7 13,4 --- 6,2
09.05.2021 11,2 12,9 17,3 18,0 30,1 4,3 62 0,0 6996 1,3 9,9 --- 9,5
08.05.2021 10,4 10,3 9,8 10,2 19,1 -1,0 64 0,0 5387 1,5 6,8 --- 10,6
07.05.2021 10,2 10,8 8,4 8,5 13,5 1,9 72 0,1 6790 1,9 12,8 --- 9,7
06.05.2021 9,9 9,2 7,0 6,9 10,6 3,5 91 7,3 1883 1,7 6,5 --- 4,5
05.05.2021 10,2 9,8 8,7 8,4 12,3 3,5 73 1,3 4585 3,7 15,4 --- 8,7
04.05.2021 10,6 9,7 11,0 10,6 13,5 7,3 66 0,5 1122 5,5 15,8 --- 1,8
03.05.2021 11,0 10,6 8,7 8,4 15,6 -0,6 63 0,0 5688 1,8 10,5 --- 10,1
02.05.2021 11,4 12,1 9,9 10,1 14,5 2,0 56 0,0 6722 1,6 7,7 --- 9,6
01.05.2021 10,7 10,9 9,5 10,0 16,2 2,6 70 0,0 4284 1,0 4,8 --- 9,2
30.04.2021 11,1 10,1 6,3 6,6 10,5 -0,2 76 0,0 2466 0,8 3,5 --- 8,0
29.04.2021 12,2 12,9 12,5 12,1 17,3 5,7 74 3,6 5328 2,9 13,8 --- 9,6
28.04.2021 11,6 12,5 12,6 13,0 22,9 3,8 56 3,4 6304 1,1 9,4 --- 8,4
27.04.2021 11,2 11,9 10,7 11,2 19,0 2,5 41 0,0 7490 1,5 7,3 --- 9,9
26.04.2021 11,1 11,5 9,2 9,5 17,3 0,9 47 0,0 7779 1,5 6,8 --- 10,2
25.04.2021 11,1 11,7 9,6 9,9 16,1 2,9 54 0,0 7645 1,5 7,7 --- 10,2
24.04.2021 10,8 11,5 10,3 10,9 18,7 2,4 56 0,0 7340 1,5 6,2 --- 10,0
23.04.2021 10,6 11,2 8,7 9,4 17,9 -0,5 58 0,0 7455 0,9 6,4 --- 10,0
22.04.2021 10,6 11,3 9,5 9,9 16,1 4,6 58 9,4 7129 1,6 7,3 --- 9,7
21.04.2021 10,2 11,2 10,2 10,8 20,3 1,2 72 0,6 6084 0,8 11,2 --- 9,0
20.04.2021 9,6 10,5 8,3 9,1 19,3 -0,2 77 0,0 5934 0,6 5,3 --- 9,1
19.04.2021 9,3 10,2 9,3 9,4 16,3 3,2 87 2,1 3215 0,8 4,8 --- 8,4
18.04.2021 8,6 9,0 8,3 8,5 13,8 3,5 77 0,1 2696 0,7 4,7 --- 7,9
17.04.2021 7,9 8,3 7,0 7,1 13,3 0,2 67 0,0 4911 1,1 7,7 --- 7,9
16.04.2021 7,6 7,1 5,1 5,1 9,2 -1,2 71 0,0 3218 1,1 6,4 --- 8,1
15.04.2021 7,5 6,9 4,5 4,6 10,9 -2,4 69 0,0 5037 1,5 7,9 --- 9,6
14.04.2021 7,7 7,1 3,6 3,8 11,6 -2,6 71 0,0 4755 1,0 6,6 --- 9,4
13.04.2021 7,7 7,2 3,3 3,7 11,0 -4,1 74 0,1 5672 0,8 6,3 --- 9,5
12.04.2021 8,3 8,1 4,9 4,9 10,2 -1,1 79 0,1 3647 1,3 7,0 --- 7,8
11.04.2021 8,4 8,7 8,8 8,8 16,0 4,0 87 7,1 1875 1,8 7,3 --- 3,6
10.04.2021 8,0 8,5 11,0 11,1 13,9 9,4 75 2,3 1329 2,0 7,3 --- 4,0
09.04.2021 6,8 6,7 8,5 8,4 17,1 -3,3 57 0,0 5366 2,1 9,5 --- 8,7
08.04.2021 6,3 5,8 4,2 4,2 10,7 -1,4 61 0,0 4155 1,5 6,6 --- 8,7
07.04.2021 6,7 5,2 3,5 3,1 5,2 1,2 69 0,1 1283 4,0 12,3 --- 3,8
06.04.2021 7,0 5,6 2,8 2,6 7,7 -2,9 68 0,1 3766 2,9 13,2 --- 7,9
05.04.2021 8,5 6,8 3,5 3,3 8,0 -1,5 80 1,3 1216 2,8 11,9 --- 3,2
04.04.2021 9,1 8,8 5,6 6,1 13,8 -1,8 68 0,0 5373 0,8 5,5 --- 8,9
03.04.2021 9,6 9,6 7,9 8,0 13,8 2,7 57 0,0 5502 1,4 7,2 --- 8,6
02.04.2021 10,2 10,3 8,5 8,8 14,7 1,3 66 0,0 4087 1,8 7,8 --- 8,2
01.04.2021 10,1 11,3 14,1 14,8 25,3 4,4 62 0,0 5052 1,1 6,1 --- 8,3
31.03.2021 9,4 10,4 12,3 13,6 27,2 1,5 64 0,0 5648 0,5 3,6 --- 8,8
30.03.2021 8,6 9,5 11,0 12,3 24,6 0,6 63 0,0 5780 0,5 4,7 --- 8,9
29.03.2021 8,1 8,8 12,6 12,8 22,2 4,4 54 0,0 5638 1,7 7,7 --- 8,3
28.03.2021 7,6 7,9 10,1 9,9 16,1 2,8 66 0,0 4634 2,3 9,4 --- 7,6
27.03.2021 7,9 7,8 9,2 8,2 11,6 3,7 71 0,3 3522 4,3 14,4 --- 6,7
26.03.2021 7,4 8,3 11,4 11,5 18,0 5,7 67 0,0 4630 1,9 7,3 --- 7,2
25.03.2021 6,6 6,8 8,4 8,8 17,3 -0,3 70 0,0 4346 2,0 8,4 --- 8,3
24.03.2021 6,2 6,1 6,1 6,3 16,3 -2,7 74 0,0 5285 1,1 5,7 --- 8,6
23.03.2021 6,2 6,5 6,1 6,2 11,2 0,2 77 0,0 2566 0,6 4,7 --- 6,4
22.03.2021 5,7 5,5 5,9 5,9 8,5 4,1 75 0,0 1371 1,4 5,9 --- 4,7
21.03.2021 5,5 5,2 5,4 5,4 10,1 2,4 69 0,0 1936 2,1 9,3 --- 5,5
20.03.2021 5,2 4,4 2,0 2,4 7,9 -4,2 65 0,0 4968 0,9 5,5 --- 7,3
19.03.2021 5,8 5,4 3,3 3,8 11,1 -1,9 82 1,1 3207 1,6 8,9 --- 6,4
18.03.2021 5,4 4,9 2,7 3,9 20,0 -2,9 79 0,4 3755 0,7 5,8 --- 7,0
17.03.2021 5,9 5,4 3,7 4,2 12,8 0,8 88 2,6 1840 0,9 5,9 --- 3,9
16.03.2021 5,9 5,5 5,4 5,7 9,5 3,9 84 0,1 1564 1,6 8,0 --- 4,5
15.03.2021 5,8 5,5 5,7 5,7 10,1 3,3 85 7,4 2370 2,5 9,5 --- 5,6
14.03.2021 5,9 5,4 5,0 5,0 8,2 2,4 87 1,9 2020 2,9 9,8 --- 6,3
13.03.2021 6,0 5,8 7,7 7,2 9,7 6,3 84 4,2 1362 5,5 18,2 --- 3,0
12.03.2021 6,0 5,9 8,1 7,5 10,6 8,3 73 4,9 2422 5,4 17,6 --- 6,3
11.03.2021 5,7 6,1 9,8 9,4 15,1 8,1 77 1,4 1413 5,0 17,7 --- 2,5
10.03.2021 4,9 5,1 6,6 6,5 10,9 1,9 79 0,0 1915 1,8 6,3 --- 6,1
09.03.2021 4,3 3,8 3,2 3,5 7,9 -2,5 82 0,0 2236 1,1 5,5 --- 5,3
08.03.2021 3,9 2,9 1,9 1,5 7,2 -5,6 74 0,0 3792 1,0 5,0 --- 7,4
07.03.2021 4,1 2,6 1,0 2,0 10,0 -7,1 60 0,0 4413 0,8 5,1 --- 7,7
06.03.2021 5,0 3,3 0,9 1,0 8,5 -4,8 64 0,0 4357 1,3 6,7 --- 7,7
05.03.2021 6,2 5,9 4,1 3,7 7,3 -1,4 79 0,6 1973 1,6 7,0 --- 5,9
04.03.2021 5,8 6,3 9,0 8,0 14,8 5,1 77 1,4 2391 1,6 7,0 --- 5,4
03.03.2021 5,1 4,7 5,5 5,2 14,1 -2,1 81 0,0 2613 0,9 5,5 --- 6,0
02.03.2021 5,0 4,8 6,3 6,9 15,1 -1,2 74 0,0 3853 0,8 3,9 --- 7,3
01.03.2021 4,6 3,9 6,0 5,3 13,9 -0,1 72 0,0 3847 1,6 7,6 --- 7,2
28.02.2021 4,9 3,9 4,3 4,8 11,6 -0,6 75 0,0 3807 1,2 7,1 --- 7,3
27.02.2021 5,2 4,3 3,8 3,6 9,2 -2,5 85 0,0 3718 1,1 5,7 --- 7,3
26.02.2021 6,1 5,3 5,0 4,3 8,2 -0,4 89 0,2 665 0,9 7,3 --- 1,2
25.02.2021 6,2 6,5 9,9 8,6 19,0 3,1 75 0,0 3329 0,9 4,2 --- 6,9
24.02.2021 5,9 6,5 10,7 9,7 19,0 5,1 79 0,0 2964 1,0 4,8 --- 6,7
23.02.2021 5,1 5,5 9,3 8,8 18,7 1,5 81 0,0 2846 1,3 5,7 --- 6,5
22.02.2021 4,7 4,5 5,0 6,2 12,9 -2,1 88 0,0 2735 0,7 3,4 --- 7,1
21.02.2021 4,5 4,4 6,7 7,2 18,9 -1,4 82 0,0 3080 0,6 3,1 --- 6,4
20.02.2021 4,1 4,5 7,1 6,9 16,3 0,4 87 0,0 2785 0,8 5,2 --- 6,3
19.02.2021 3,5 3,9 7,0 6,4 12,1 0,6 85 0,0 2350 1,7 7,8 --- 6,3
18.02.2021 2,5 2,4 3,9 3,2 9,6 -1,3 92 0,0 1640 0,7 6,0 --- 4,8
17.02.2021 1,3 1,3 7,1 7,1 11,9 3,1 89 1,2 1290 2,2 7,5 --- 4,0
16.02.2021 0,8 -0,4 5,5 3,8 9,9 2,3 82 0,0 1939 2,1 5,4 --- 5,0
15.02.2021 0,9 -0,7 -1,1 -1,6 1,6 -6,0 75 1,1 759 1,5 6,5 --- 1,8
14.02.2021 1,0 -0,9 -2,5 -1,7 14,3 -8,2 68 0,0 2911 1,4 6,1 --- 6,1
13.02.2021 1,4 -0,5 -4,5 -2,0 12,3 -8,6 70 0,0 2956 2,3 9,5 --- 6,3
12.02.2021 1,8 -0,1 -4,7 -2,3 11,1 -8,5 77 0,0 2830 2,4 9,6 --- 6,1
11.02.2021 2,2 0,2 -5,6 -4,9 2,1 -10,9 86 0,8 2153 0,6 3,4 --- 5,3
10.02.2021 2,9 0,8 -7,6 -7,3 -1,9 -9,5 78 0,1 1314 2,0 7,6 --- 5,0
09.02.2021 3,8 1,9 -6,5 -6,1 -3,5 -8,3 78 0,0 979 1,7 5,8 --- 3,4
08.02.2021 4,9 2,9 -3,3 -3,2 0,6 -5,6 94 0,0 637 2,0 6,6 --- 0,5
07.02.2021 6,0 5,4 3,7 3,7 8,3 -1,5 99 4,0 336 1,4 7,8 --- ---
06.02.2021 6,3 6,1 6,2 6,4 9,4 4,7 98 9,8 314 1,7 6,6 --- ---
05.02.2021 6,2 5,8 5,6 5,8 8,1 3,3 99 3,2 542 0,5 2,0 --- 0,3
04.02.2021 6,7 6,8 8,0 15,9 27,2 4,4 83 0,1 1841 2,4 11,6 --- 4,8
03.02.2021 6,2 7,2 10,6 14,6 27,3 10,0 93 10,4 344 3,7 10,6 --- 0,1
02.02.2021 4,9 5,1 7,6 8,2 16,0 4,4 97 1,8 587 2,6 8,1 --- 0,8
01.02.2021 4,3 3,9 3,8 3,7 5,3 2,2 100 4,5 426 0,5 1,8 --- ---
31.01.2021 4,5 3,4 1,4 1,3 2,5 0,2 93 0,7 640 1,6 5,7 --- 0,8
30.01.2021 5,4 5,3 4,8 4,9 10,1 0,7 94 6,4 390 2,7 8,7 --- 0,4
29.01.2021 4,9 5,8 9,8 10,5 16,0 7,8 87 1,8 928 4,3 14,6 --- 2,6
28.01.2021 3,2 3,3 6,2 6,4 13,6 1,8 95 10,1 267 3,3 9,4 --- ---
27.01.2021 2,9 1,8 1,0 1,1 2,0 0,3 97 1,3 418 2,7 8,3 --- 0,5
26.01.2021 3,2 2,1 1,9 2,2 6,7 -0,7 86 0,0 501 3,0 10,4 --- 0,8
25.01.2021 3,4 2,4 1,0 1,1 2,8 -0,8 93 0,6 602 0,9 4,2 --- 0,7
24.01.2021 4,0 3,0 2,8 3,4 7,6 -0,2 86 2,2 532 4,5 12,6 --- 0,6
23.01.2021 4,4 3,7 3,4 3,6 5,3 1,4 95 0,6 482 1,6 6,1 --- 0,4
22.01.2021 4,8 5,1 6,3 6,5 11,3 2,8 90 10,4 393 3,2 13,7 --- ---
21.01.2021 3,6 4,0 8,7 9,1 12,8 7,0 73 0,9 488 5,2 14,3 --- 0,4
20.01.2021 2,6 2,1 5,6 6,2 9,9 1,5 70 0,0 735 3,4 8,4 --- 2,2
19.01.2021 2,4 1,7 2,7 2,9 5,9 1,7 88 2,9 173 3,7 10,9 --- ---
18.01.2021 1,8 1,0 2,4 2,7 6,6 1,0 93 0,0 725 2,6 7,9 --- 1,8
17.01.2021 1,6 0,3 -0,7 -0,7 1,6 -2,2 98 2,4 726 1,4 4,3 --- 2,7
16.01.2021 1,7 0,3 -0,6 -0,5 0,4 -2,0 83 0,0 349 1,1 5,3 --- ---
15.01.2021 1,8 0,3 -0,5 -0,3 2,5 -2,8 88 0,0 1062 0,7 4,5 --- 3,5
14.01.2021 1,7 0,3 1,4 1,7 3,5 -0,1 85 0,1 557 1,1 4,6 --- 0,9
13.01.2021 1,8 0,2 0,3 0,7 7,3 -4,0 93 0,1 1180 2,0 9,1 --- 3,3
12.01.2021 1,8 0,1 1,4 1,6 4,1 -0,4 93 4,6 189 3,5 9,8 --- ---
11.01.2021 2,2 0,1 -2,7 -2,5 2,8 -7,4 91 0,0 1537 1,5 6,9 --- 4,5
10.01.2021 2,9 0,8 -2,2 -1,7 3,0 -5,7 93 0,1 1587 0,4 2,4 --- 4,7
09.01.2021 3,7 2,3 0,2 0,4 4,0 -2,9 94 0,0 727 0,5 3,6 --- 1,7
08.01.2021 3,9 2,6 1,3 1,4 2,6 0,3 96 1,9 346 2,0 6,0 --- ---
07.01.2021 4,2 3,0 1,9 2,0 3,1 0,6 92 0,5 333 1,6 5,4 --- ---
06.01.2021 4,2 3,2 2,4 2,4 3,8 1,4 96 0,1 311 0,9 3,8 --- ---
05.01.2021 4,2 3,1 2,2 2,1 3,3 1,5 95 0,0 252 1,1 4,7 --- ---
04.01.2021 4,3 3,0 1,6 1,6 2,5 0,7 98 0,7 175 0,8 4,7 --- ---
03.01.2021 4,4 3,1 1,5 1,5 2,7 0,1 94 2,7 272 0,6 3,7 --- ---
02.01.2021 4,6 3,3 1,8 1,9 4,0 -1,0 90 0,0 574 0,7 4,3 --- 0,9
01.01.2021 4,8 3,8 2,7 2,8 3,8 0,6 97 0,0 322 0,7 2,5 --- ---

Mittelwerte (Temperaturen, Strahlung, rel. Feuchte, Wind), Summe (Regen) für 2021
12,6 12,4 11,7 12,0 79 581 3.713 1,4

Landesbetrieb Landwirtschaft Hessen 2009

      Werte bis 5 Uhr SommerzeitCSV-Datei: Allmendfeld21.csvDiagramm: Allmendfeld